Time;durP1;ratioP1;P1;durP2;ratioP2;P2;SDS_P1;SDS_P2;PMS_P1;PMS_P2;Temp;Humidity;BMP_temperature;BMP_pressure;BME280_temperature;BME280_humidity;BME280_pressure;Samples;Min_cycle;Max_cycle;Signal;HPM_P1;HPM_P2
2022/06/17 00:02:17;;;;;;;25.88;17.80;;;;;;;18.37;92.42;95001.34;4937749;29;20220;-76
2022/06/17 00:04:54;;;;;;;20.58;16.70;;;;;;;18.25;92.31;94996.31;4941542;29;20209;-78
2022/06/17 00:07:27;;;;;;;22.92;17.33;;;;;;;18.27;90.64;95003.97;4943588;29;20212;-76
2022/06/17 00:10:05;;;;;;;23.33;17.63;;;;;;;18.12;91.46;95013.34;4948939;29;20201;-78
2022/06/17 00:12:42;;;;;;;22.30;16.83;;;;;;;18.10;90.73;95012.03;4939937;29;20198;-79
2022/06/17 00:15:21;;;;;;;26.00;16.70;;;;;;;18.00;90.52;95006.72;4933128;29;20713;-78
2022/06/17 00:17:57;;;;;;;21.27;16.27;;;;;;;18.01;90.92;95009.09;4942687;29;20268;-79
2022/06/17 00:20:34;;;;;;;24.00;16.97;;;;;;;18.12;92.72;95015.22;4943586;29;20661;-79
2022/06/17 00:23:17;;;;;;;22.80;17.80;;;;;;;18.14;94.26;95007.84;4939501;29;20675;-78
2022/06/17 00:25:54;;;;;;;26.77;18.08;;;;;;;18.22;94.36;95015.25;4946490;29;20198;-78
2022/06/17 00:28:35;;;;;;;24.08;19.17;;;;;;;18.31;94.39;95008.44;4939579;29;21008;-79
2022/06/17 00:31:20;;;;;;;25.73;19.13;;;;;;;18.34;94.36;95009.78;4939846;29;20265;-78
2022/06/17 00:34:01;;;;;;;28.80;18.92;;;;;;;18.33;94.06;95008.19;4936088;29;20243;-78
2022/06/17 00:36:40;;;;;;;30.98;19.27;;;;;;;18.31;94.70;95011.06;4939259;29;20292;-79
2022/06/17 00:39:20;;;;;;;27.75;18.70;;;;;;;18.28;95.40;95014.22;4940826;29;20224;-78
2022/06/17 00:42:05;;;;;;;26.65;19.58;;;;;;;18.30;96.00;95008.69;4946621;29;20217;-78
2022/06/17 00:44:52;;;;;;;28.73;20.43;;;;;;;18.30;96.23;95003.44;4942888;29;20201;-77
2022/06/17 00:47:37;;;;;;;30.80;20.67;;;;;;;18.30;96.88;95006.06;4939465;29;20221;-78
2022/06/17 00:50:24;;;;;;;32.87;21.43;;;;;;;18.22;96.59;94999.44;4937584;29;20558;-76
2022/06/17 00:53:10;;;;;;;36.27;20.53;;;;;;;18.17;97.23;95009.97;4951813;28;20953;-76
2022/06/17 00:55:45;;;;;;;32.53;20.63;;;;;;;18.10;98.34;94996.22;4961031;28;20304;-76
2022/06/17 00:58:28;;;;;;;25.67;20.23;;;;;;;18.07;99.37;94992.28;4955541;28;20215;-76
2022/06/17 01:01:04;;;;;;;28.53;20.43;;;;;;;18.09;98.72;94997.31;4956378;28;20320;-77
2022/06/17 01:03:44;;;;;;;29.10;19.83;;;;;;;18.06;99.50;95003.88;4965462;28;20215;-76
2022/06/17 01:06:30;;;;;;;28.63;19.80;;;;;;;18.05;99.70;95001.47;4957421;28;20283;-76
2022/06/17 01:12:08;;;;;;;22.93;17.57;;;;;;;18.02;98.39;94992.25;4959884;28;20798;-76
2022/06/17 01:14:45;;;;;;;22.63;17.03;;;;;;;17.94;98.48;94992.75;4958241;28;20205;-76
2022/06/17 01:17:22;;;;;;;23.90;17.53;;;;;;;17.92;99.03;94986.94;4963123;28;20213;-77
2022/06/17 01:19:59;;;;;;;26.17;17.33;;;;;;;17.87;100.00;94992.16;4969456;28;20312;-76
2022/06/17 01:22:49;;;;;;;23.33;16.67;;;;;;;17.79;99.44;94981.34;4967968;28;20232;-76
2022/06/17 01:25:28;;;;;;;21.60;16.93;;;;;;;17.82;99.45;94981.63;4954132;28;20209;-77
2022/06/17 01:28:15;;;;;;;24.37;17.80;;;;;;;17.78;99.08;94985.81;4959290;28;20204;-77
2022/06/17 01:30:52;;;;;;;24.57;17.07;;;;;;;17.76;100.00;94984.47;4962442;28;20233;-77
2022/06/17 01:33:31;;;;;;;25.70;17.07;;;;;;;17.75;100.00;94975.78;4965032;28;20252;-79
2022/06/17 01:36:18;;;;;;;40.27;25.97;;;;;;;17.66;100.00;94972.09;4966790;28;20264;-76
2022/06/17 01:39:00;;;;;;;45.50;31.23;;;;;;;17.40;100.00;94968.44;4963194;28;21075;-77
2022/06/17 01:41:39;;;;;;;52.80;31.37;;;;;;;17.27;100.00;94965.44;4961558;28;20245;-77
2022/06/17 01:44:21;;;;;;;43.87;29.93;;;;;;;17.30;100.00;94967.59;4964511;28;20208;-76
2022/06/17 01:47:03;;;;;;;47.63;29.97;;;;;;;17.32;100.00;94962.84;4961969;28;20311;-77
2022/06/17 01:49:44;;;;;;;45.30;29.67;;;;;;;17.32;100.00;94960.22;4958282;28;20212;-78
2022/06/17 01:52:32;;;;;;;46.93;32.03;;;;;;;17.35;100.00;94967.59;4965286;28;20268;-77
2022/06/17 01:55:23;;;;;;;31.43;22.60;;;;;;;17.34;100.00;94966.03;4962183;28;20557;-77
2022/06/17 01:58:13;;;;;;;32.43;23.33;;;;;;;17.32;100.00;94955.78;4963263;28;20212;-79
2022/06/17 02:00:51;;;;;;;30.13;23.03;;;;;;;17.31;100.00;94963.91;4961392;28;20209;-77
2022/06/17 02:03:32;;;;;;;29.57;21.63;;;;;;;17.31;100.00;94966.53;4964033;28;20348;-78
2022/06/17 02:06:16;;;;;;;31.73;20.77;;;;;;;17.30;100.00;94965.75;4965320;28;20201;-77
2022/06/17 02:08:55;;;;;;;35.67;23.07;;;;;;;17.23;100.00;94975.66;4963745;28;20267;-77
2022/06/17 02:11:38;;;;;;;32.13;23.13;;;;;;;17.21;100.00;94976.97;4961077;28;20209;-77
2022/06/17 02:14:16;;;;;;;31.63;21.53;;;;;;;17.21;100.00;94977.75;4962106;28;20229;-76
2022/06/17 02:16:55;;;;;;;34.87;20.53;;;;;;;17.21;100.00;94982.22;4968568;28;20208;-76
2022/06/17 02:19:36;;;;;;;30.67;21.27;;;;;;;17.15;100.00;94983.22;4968313;28;20200;-76
2022/06/17 02:22:17;;;;;;;29.70;21.37;;;;;;;17.19;100.00;94994.81;4956859;28;20703;-77
2022/06/17 02:24:56;;;;;;;27.33;20.33;;;;;;;17.11;100.00;94984.78;4962897;28;20205;-77
2022/06/17 02:27:43;;;;;;;26.27;20.23;;;;;;;17.07;100.00;94989.72;4957411;28;20216;-77
2022/06/17 02:30:24;;;;;;;25.60;19.57;;;;;;;17.03;100.00;94984.16;4963611;28;20216;-76
2022/06/17 02:33:00;;;;;;;28.87;19.30;;;;;;;17.03;100.00;94981.53;4961744;28;20214;-77
2022/06/17 02:35:39;;;;;;;30.50;21.40;;;;;;;17.01;100.00;94980.22;4968189;28;20204;-78
2022/06/17 02:38:26;;;;;;;33.40;23.20;;;;;;;16.90;100.00;94971.47;4959702;28;20207;-77
2022/06/17 02:41:05;;;;;;;34.50;22.23;;;;;;;16.84;100.00;94988.22;4961340;28;20268;-77
2022/06/17 02:43:49;;;;;;;39.23;22.97;;;;;;;16.74;100.00;94985.47;4958275;28;20204;-77
2022/06/17 02:46:23;;;;;;;35.17;23.37;;;;;;;16.67;100.00;94982.25;4961509;28;20201;-77
2022/06/17 02:49:04;;;;;;;37.43;23.90;;;;;;;16.76;100.00;94983.41;4963057;28;21234;-77
2022/06/17 02:51:42;;;;;;;46.57;25.83;;;;;;;16.80;100.00;94988.94;4960495;28;20283;-77
2022/06/17 02:57:20;;;;;;;38.23;24.37;;;;;;;16.73;100.00;94981.28;4940193;29;20453;-77
2022/06/17 03:00:07;;;;;;;35.17;23.00;;;;;;;16.80;100.00;94984.47;4941533;29;20213;-77
2022/06/17 03:02:40;;;;;;;30.13;22.10;;;;;;;16.77;100.00;94992.84;4943086;29;20252;-78
2022/06/17 03:05:23;;;;;;;40.50;23.17;;;;;;;16.80;100.00;94979.22;4942563;29;20208;-79
2022/06/17 03:08:01;;;;;;;35.93;23.70;;;;;;;16.85;100.00;94983.75;4942974;29;20216;-78
2022/06/17 03:10:40;;;;;;;39.37;24.83;;;;;;;16.80;100.00;94981.06;4940168;29;20703;-78
2022/06/17 03:13:29;;;;;;;46.10;23.97;;;;;;;16.77;100.00;94973.69;4942143;29;20205;-78
2022/06/17 03:16:13;;;;;;;32.73;22.33;;;;;;;16.77;100.00;94982.34;4942451;29;20684;-77
2022/06/17 03:18:53;;;;;;;33.00;21.87;;;;;;;16.83;100.00;94977.94;4943862;29;20209;-77
2022/06/17 03:21:36;;;;;;;37.73;22.13;;;;;;;16.83;100.00;94989.25;4935669;29;20688;-77
2022/06/17 03:24:26;;;;;;;31.57;20.00;;;;;;;16.81;100.00;94987.91;4943598;29;20260;-77
2022/06/17 03:27:08;;;;;;;31.57;18.83;;;;;;;16.82;100.00;94981.63;4943382;29;20210;-77
2022/06/17 03:29:55;;;;;;;32.00;19.93;;;;;;;16.83;100.00;94983.97;4937090;29;20209;-77
2022/06/17 03:32:41;;;;;;;29.00;19.43;;;;;;;16.92;100.00;94986.97;4945239;29;20213;-77
2022/06/17 03:35:28;;;;;;;27.13;20.10;;;;;;;16.91;100.00;94986.16;4941794;29;20202;-77
2022/06/17 03:38:11;;;;;;;28.80;19.30;;;;;;;16.92;100.00;94995.63;4942002;29;20205;-77
2022/06/17 03:40:54;;;;;;;39.93;18.40;;;;;;;16.97;100.00;94995.66;4941121;28;20280;-77
2022/06/17 03:43:35;;;;;;;25.43;17.70;;;;;;;17.00;100.00;94997.00;4937583;29;20237;-76
2022/06/17 03:46:18;;;;;;;31.37;17.77;;;;;;;16.95;100.00;95000.38;4942230;29;20209;-75
2022/06/17 03:49:03;;;;;;;29.17;18.70;;;;;;;17.01;100.00;95006.47;4942273;29;20216;-77
2022/06/17 03:51:45;;;;;;;30.23;18.40;;;;;;;17.02;100.00;95005.44;4940914;29;20640;-77
2022/06/17 03:54:27;;;;;;;22.83;16.50;;;;;;;17.03;100.00;95002.56;4962194;28;20291;-79
2022/06/17 03:57:03;;;;;;;20.40;16.77;;;;;;;17.00;100.00;95018.81;4959783;28;20213;-79
2022/06/17 03:59:43;;;;;;;24.00;16.43;;;;;;;16.93;100.00;95012.19;4962865;28;20196;-80
2022/06/17 04:02:19;;;;;;;29.63;17.70;;;;;;;16.93;100.00;95012.97;4957173;28;20385;-80
2022/06/17 04:04:57;;;;;;;24.33;16.13;;;;;;;17.06;100.00;95019.66;4960381;28;20296;-79
2022/06/17 04:07:34;;;;;;;29.50;17.43;;;;;;;17.07;100.00;95016.00;4963976;28;20204;-78
2022/06/17 04:10:07;;;;;;;23.33;17.43;;;;;;;17.06;100.00;95018.84;4968971;28;20264;-79
2022/06/17 04:12:38;;;;;;;23.67;16.73;;;;;;;17.03;100.00;95018.31;4959608;28;20296;-78
2022/06/17 04:15:15;;;;;;;24.60;18.17;;;;;;;17.05;100.00;95006.78;4959986;28;20220;-80
2022/06/17 04:17:46;;;;;;;24.73;16.83;;;;;;;17.12;100.00;95017.84;4957888;28;20204;-79
2022/06/17 04:20:46;;;;;;;29.23;17.17;;;;;;;17.11;100.00;95021.53;4967570;28;20205;-78
2022/06/17 04:23:19;;;;;;;24.40;17.13;;;;;;;17.21;100.00;95027.66;4959395;28;20683;-78
2022/06/17 04:25:58;;;;;;;26.87;17.67;;;;;;;17.27;100.00;95041.66;4961386;28;20580;-78
2022/06/17 04:28:31;;;;;;;25.57;17.10;;;;;;;17.37;100.00;95028.59;4925100;28;20220;-78
2022/06/17 04:31:01;;;;;;;30.90;17.53;;;;;;;17.31;100.00;95027.78;4959525;28;20827;-79
2022/06/17 04:33:37;;;;;;;26.70;18.10;;;;;;;17.33;100.00;95017.78;4959738;28;20219;-78
2022/06/17 04:36:13;;;;;;;21.13;15.90;;;;;;;17.42;100.00;95021.56;4967589;28;20737;-88
2022/06/17 04:39:01;;;;;;;19.43;16.00;;;;;;;17.49;100.00;95023.94;4966853;28;20200;-88
2022/06/17 04:41:33;;;;;;;25.87;16.50;;;;;;;17.42;100.00;95024.19;4974281;28;20197;-87
2022/06/17 04:44:11;;;;;;;23.77;17.40;;;;;;;17.46;100.00;95019.22;4965883;28;20308;-86
2022/06/17 04:46:50;;;;;;;27.37;16.57;;;;;;;17.36;100.00;95027.00;4970066;28;20204;-86
2022/06/17 04:49:25;;;;;;;28.73;17.03;;;;;;;17.26;100.00;95025.09;4973521;28;20216;-88
2022/06/17 04:52:04;;;;;;;30.73;17.93;;;;;;;17.22;100.00;95025.84;4973976;28;20248;-90
2022/06/17 04:54:35;;;;;;;22.77;16.93;;;;;;;17.20;100.00;95010.31;4972369;28;20599;-86
2022/06/17 04:57:09;;;;;;;25.13;16.63;;;;;;;17.37;100.00;95016.22;4969634;28;20240;-85
2022/06/17 04:59:44;;;;;;;22.60;16.60;;;;;;;17.41;100.00;95021.78;4962890;28;20664;-86
2022/06/17 05:02:21;;;;;;;24.13;16.50;;;;;;;17.36;100.00;95014.66;4974752;28;20225;-86
2022/06/17 05:04:55;;;;;;;34.00;16.80;;;;;;;17.42;100.00;95016.28;4977916;28;21075;-85
2022/06/17 05:07:31;;;;;;;22.90;17.60;;;;;;;17.49;100.00;95013.44;4973296;28;20218;-86
2022/06/17 05:10:07;;;;;;;23.57;15.73;;;;;;;17.58;100.00;95022.47;4970969;28;20973;-83
2022/06/17 05:12:41;;;;;;;23.80;15.50;;;;;;;17.62;100.00;95010.44;4969275;28;20621;-84
2022/06/17 05:15:15;;;;;;;22.60;15.50;;;;;;;17.76;100.00;95021.28;4970827;28;20267;-85
2022/06/17 05:17:46;;;;;;;20.17;14.47;;;;;;;17.82;100.00;95015.03;4970055;28;20240;-85
2022/06/17 05:20:16;;;;;;;24.37;14.40;;;;;;;17.84;100.00;95020.81;4971555;28;20205;-82
2022/06/17 05:22:50;;;;;;;19.40;13.80;;;;;;;17.91;99.48;95024.03;4972211;28;20260;-84
2022/06/17 05:25:23;;;;;;;22.47;13.77;;;;;;;17.93;100.00;95027.19;4966419;28;20299;-84
2022/06/17 05:27:53;;;;;;;18.70;13.00;;;;;;;17.92;98.58;95020.34;4962429;28;20273;-82
2022/06/17 05:30:24;;;;;;;19.00;13.90;;;;;;;17.95;99.60;95019.84;4970147;28;20217;-81
2022/06/17 05:33:01;;;;;;;19.03;13.67;;;;;;;17.93;98.58;95024.56;4973378;28;20221;-79
2022/06/17 05:35:33;;;;;;;25.27;13.20;;;;;;;17.95;98.71;95018.00;4962855;28;20355;-80
2022/06/17 05:38:08;;;;;;;18.13;13.43;;;;;;;18.00;99.43;95017.25;4964669;28;20288;-81
2022/06/17 05:40:41;;;;;;;19.37;13.70;;;;;;;18.05;98.11;95010.16;4960849;28;20213;-80
2022/06/17 05:43:16;;;;;;;21.27;13.43;;;;;;;18.20;96.62;95004.19;4963614;28;20237;-78
2022/06/17 05:45:47;;;;;;;21.07;13.43;;;;;;;18.17;96.05;95007.34;4969882;28;20208;-78
2022/06/17 05:48:22;;;;;;;22.85;13.25;;;;;;;18.06;95.35;94993.34;4968295;28;20205;-78
2022/06/17 05:50:57;;;;;;;19.00;13.60;;;;;;;18.19;95.50;95001.81;4960671;28;20205;-79
2022/06/17 05:53:35;;;;;;;23.37;13.90;;;;;;;18.25;95.90;95003.41;4966803;28;20229;-76
2022/06/17 05:56:10;;;;;;;19.25;13.40;;;;;;;18.35;95.38;95006.09;4965687;28;20217;-79
2022/06/17 05:58:45;;;;;;;21.10;13.50;;;;;;;18.45;94.09;95004.28;4966637;28;20558;-82
2022/06/17 06:01:18;;;;;;;15.43;12.82;;;;;;;18.55;93.92;94998.31;4967484;28;20205;-79
2022/06/17 06:03:52;;;;;;;18.67;13.63;;;;;;;18.63;93.93;95003.06;4959074;28;20222;-80
2022/06/17 06:06:27;;;;;;;23.15;12.13;;;;;;;18.72;92.99;95001.50;4963154;28;20225;-79
2022/06/17 06:09:08;;;;;;;17.58;11.50;;;;;;;18.75;92.27;94994.94;4961639;28;20273;-79
2022/06/17 06:11:41;;;;;;;18.55;11.90;;;;;;;18.83;89.19;94991.78;4962747;28;20213;-78
2022/06/17 06:14:14;;;;;;;20.27;11.55;;;;;;;18.82;88.80;94993.63;4968078;28;20232;-79
2022/06/17 06:16:48;;;;;;;19.23;11.00;;;;;;;18.82;88.41;94990.19;4958927;28;20228;-79
2022/06/17 06:19:21;;;;;;;17.48;11.45;;;;;;;18.90;88.47;94997.59;4963106;28;20204;-79
2022/06/17 06:21:56;;;;;;;26.05;11.75;;;;;;;18.97;87.98;94998.94;4958374;28;20208;-78
2022/06/17 06:24:31;;;;;;;15.82;11.43;;;;;;;19.08;89.23;94995.25;4960527;28;20234;-79
2022/06/17 06:27:05;;;;;;;16.23;11.27;;;;;;;19.09;89.68;94996.84;4955790;28;20197;-79
2022/06/17 06:29:35;;;;;;;21.60;11.13;;;;;;;19.21;88.84;94986.03;4962582;28;20668;-75
2022/06/17 06:32:07;;;;;;;14.82;10.88;;;;;;;19.31;88.36;94988.66;4960468;28;20213;-77
2022/06/17 06:34:41;;;;;;;17.20;9.48;;;;;;;19.33;89.07;94976.03;4955046;28;20208;-79
2022/06/17 06:37:16;;;;;;;18.42;9.93;;;;;;;19.46;88.28;94988.69;4962778;28;20237;-80
2022/06/17 06:39:52;;;;;;;14.13;10.10;;;;;;;19.57;87.83;94994.75;4959513;28;20209;-80
2022/06/17 06:42:24;;;;;;;21.40;9.90;;;;;;;19.62;86.24;94985.00;4956315;28;20216;-80
2022/06/17 06:44:55;;;;;;;15.75;9.23;;;;;;;19.65;85.74;94983.69;4957524;28;20213;-79
2022/06/17 06:47:27;;;;;;;16.23;9.18;;;;;;;19.65;85.02;94975.78;4960443;28;20232;-79
2022/06/17 06:50:00;;;;;;;13.00;9.32;;;;;;;19.80;84.54;94987.06;4953482;28;20205;-79
2022/06/17 06:52:32;;;;;;;16.65;9.35;;;;;;;19.90;82.96;94986.28;4964699;28;20232;-80
2022/06/17 06:55:07;;;;;;;15.70;9.48;;;;;;;19.90;82.56;94985.47;4961970;28;20232;-80
2022/06/17 06:57:36;;;;;;;13.63;8.07;;;;;;;19.93;81.68;94977.81;4957378;28;20204;-80
2022/06/17 07:00:09;;;;;;;13.15;8.07;;;;;;;19.98;81.07;94985.72;4958620;28;20201;-80
2022/06/17 07:02:42;;;;;;;15.25;7.80;;;;;;;20.05;80.40;94988.88;4959582;28;20264;-80
2022/06/17 07:05:14;;;;;;;11.15;8.02;;;;;;;20.14;79.99;94987.28;4966912;28;20208;-81
2022/06/17 07:07:44;;;;;;;15.75;8.70;;;;;;;20.24;78.73;94983.78;4964209;28;20279;-80
2022/06/17 07:10:20;;;;;;;14.23;7.55;;;;;;;20.32;78.06;94978.78;4958662;28;20260;-82
2022/06/17 07:12:54;;;;;;;13.82;7.80;;;;;;;20.38;77.95;94979.53;4958584;28;20208;-81
2022/06/17 07:15:29;;;;;;;11.50;7.10;;;;;;;20.49;77.25;94985.59;4960026;28;20219;-82
2022/06/17 07:18:02;;;;;;;13.40;7.18;;;;;;;20.48;77.42;94981.34;4961754;28;20245;-79
2022/06/17 07:20:36;;;;;;;16.70;7.30;;;;;;;20.50;77.39;94982.66;4961452;28;20201;-82
2022/06/17 07:23:10;;;;;;;11.45;7.20;;;;;;;20.56;77.14;94972.88;4965621;28;20228;-74
2022/06/17 07:25:46;;;;;;;13.50;7.15;;;;;;;20.62;77.57;94977.84;4962056;28;20208;-76
2022/06/17 07:28:20;;;;;;;15.65;7.15;;;;;;;20.70;77.68;94976.47;4961788;28;20200;-75
2022/06/17 07:30:54;;;;;;;10.82;7.00;;;;;;;20.75;77.38;94969.31;4962784;28;20676;-75
2022/06/17 07:33:26;;;;;;;12.65;6.50;;;;;;;20.73;77.73;94952.16;4967270;28;20219;-75
2022/06/17 07:36:02;;;;;;;10.45;7.10;;;;;;;20.98;75.58;94972.38;4962280;28;20286;-75
2022/06/17 07:41:26;;;;;;;15.35;7.65;;;;;;;20.97;76.41;94968.13;4960402;28;20910;-76
2022/06/17 07:44:00;;;;;;;11.32;7.60;;;;;;;20.92;75.63;94961.03;4959625;28;20330;-75
2022/06/17 07:46:27;;;;;;;14.63;8.27;;;;;;;20.97;76.71;94966.28;4947267;28;20268;-76
2022/06/17 07:49:00;;;;;;;17.25;8.48;;;;;;;21.02;76.25;94971.53;4959156;28;20205;-74
2022/06/17 07:51:33;;;;;;;17.58;8.40;;;;;;;21.08;76.57;94961.75;4960533;28;20211;-74
2022/06/17 07:54:05;;;;;;;13.45;8.20;;;;;;;21.16;76.66;94958.50;4938461;29;20669;-75
2022/06/17 07:56:37;;;;;;;12.43;8.65;;;;;;;21.26;76.70;94955.78;4940161;29;20272;-74
2022/06/17 07:59:12;;;;;;;11.65;9.15;;;;;;;21.35;74.94;94951.50;4938797;29;21671;-74
2022/06/17 08:01:41;;;;;;;16.27;8.32;;;;;;;21.35;75.63;94954.94;4939646;29;20567;-74
2022/06/17 08:04:11;;;;;;;15.75;8.98;;;;;;;21.38;75.78;94959.66;4939929;29;20280;-75
2022/06/17 08:06:49;;;;;;;13.48;9.18;;;;;;;21.45;76.15;94948.75;4942407;29;20217;-75
2022/06/17 08:09:23;;;;;;;19.63;8.68;;;;;;;21.46;77.41;94951.13;4940045;29;20232;-76
2022/06/17 08:11:57;;;;;;;15.27;8.20;;;;;;;21.57;75.86;94951.03;4937146;29;20211;-75
2022/06/17 08:14:31;;;;;;;11.50;8.45;;;;;;;21.57;74.66;94954.47;4939523;29;20229;-75
2022/06/17 08:17:02;;;;;;;13.02;8.70;;;;;;;21.59;75.82;94959.50;4942439;29;20209;-75
2022/06/17 08:19:35;;;;;;;17.75;8.45;;;;;;;21.68;75.31;94955.94;4939507;29;20662;-76
2022/06/17 08:22:09;;;;;;;20.42;8.85;;;;;;;21.78;74.13;94953.22;4939568;29;20696;-76
2022/06/17 08:24:41;;;;;;;10.75;8.80;;;;;;;21.75;74.16;94927.31;4942772;29;20225;-75
2022/06/17 08:27:16;;;;;;;14.30;9.07;;;;;;;21.89;73.20;94930.09;4946779;28;20232;-75
2022/06/17 08:29:46;;;;;;;13.57;8.65;;;;;;;21.89;72.93;94935.38;4944548;29;20243;-75
2022/06/17 08:35:01;;;;;;;12.07;8.93;;;;;;;21.97;73.70;94934.75;4938436;29;20247;-75
2022/06/17 08:37:32;;;;;;;15.02;8.70;;;;;;;22.07;74.50;94925.94;4940582;29;21525;-75
2022/06/17 08:40:02;;;;;;;15.40;7.95;;;;;;;22.16;73.80;94918.94;4941411;29;20209;-76
2022/06/17 08:42:50;;;;;;;16.15;8.75;;;;;;;22.31;73.80;94916.88;4937250;29;20295;-76
2022/06/17 08:45:30;;;;;;;13.93;8.32;;;;;;;22.45;73.81;94928.34;4935954;29;20230;-76
2022/06/17 08:48:18;;;;;;;13.85;8.65;;;;;;;22.57;73.71;94918.13;4939107;29;20334;-76
2022/06/17 08:51:02;;;;;;;11.60;8.25;;;;;;;22.71;71.65;94926.19;4942503;29;20281;-76
2022/06/17 08:53:51;;;;;;;10.55;8.57;;;;;;;22.79;71.01;94916.78;4953865;28;20263;-75
2022/06/17 08:56:37;;;;;;;11.93;8.68;;;;;;;22.96;68.59;94914.41;4963600;28;20228;-83
2022/06/17 08:59:26;;;;;;;14.68;8.32;;;;;;;22.87;68.74;94916.94;4949988;28;20201;-84
2022/06/17 09:02:02;;;;;;;14.32;8.35;;;;;;;22.87;69.68;94919.59;4956704;28;20335;-77
2022/06/17 09:05:00;;;;;;;14.07;8.43;;;;;;;22.96;70.06;94925.03;4958255;28;20234;-83
2022/06/17 09:07:41;;;;;;;15.25;8.35;;;;;;;23.08;69.75;94928.03;4955999;28;20476;-83
2022/06/17 09:10:39;;;;;;;14.48;8.57;;;;;;;23.26;69.75;94927.19;4959785;28;20209;-82
2022/06/17 09:13:32;;;;;;;14.00;8.40;;;;;;;23.39;68.10;94923.81;4951636;28;20228;-82
2022/06/17 09:16:17;;;;;;;14.15;9.10;;;;;;;23.31;67.04;94927.13;4960827;28;20689;-83
2022/06/17 09:18:59;;;;;;;21.50;9.02;;;;;;;23.22;66.48;94920.09;4957105;28;20344;-83
2022/06/17 09:21:38;;;;;;;14.02;8.80;;;;;;;23.31;68.58;94927.13;4957746;28;20291;-82
2022/06/17 09:24:18;;;;;;;18.17;8.73;;;;;;;23.45;66.97;94920.00;4961887;28;20728;-83
2022/06/17 09:26:53;;;;;;;14.98;8.73;;;;;;;23.51;66.19;94913.53;4955739;28;20595;-83
2022/06/17 09:29:33;;;;;;;23.20;9.40;;;;;;;23.63;64.56;94916.53;4960328;28;20928;-82
2022/06/17 09:32:11;;;;;;;14.18;8.45;;;;;;;23.66;63.74;94917.78;4959646;28;20668;-80
2022/06/17 09:34:55;;;;;;;13.32;8.98;;;;;;;23.72;64.93;94912.09;4958845;28;20205;-82
2022/06/17 09:37:40;;;;;;;13.93;8.45;;;;;;;23.85;65.73;94913.19;4957335;28;20205;-82
2022/06/17 09:40:18;;;;;;;16.92;8.98;;;;;;;23.94;65.99;94911.41;4961823;28;20240;-81
2022/06/17 09:42:58;;;;;;;12.18;8.75;;;;;;;24.11;66.80;94911.66;4963298;28;20219;-81
2022/06/17 09:45:36;;;;;;;19.13;9.23;;;;;;;24.23;64.31;94900.53;4962159;28;20230;-83
2022/06/17 09:48:17;;;;;;;13.85;9.60;;;;;;;24.38;61.85;94904.72;4960291;28;20199;-81
2022/06/17 09:50:54;;;;;;;12.88;8.80;;;;;;;24.49;61.97;94914.84;4965936;28;20675;-82
2022/06/17 09:53:28;;;;;;;15.60;9.48;;;;;;;24.49;61.87;94906.09;4963544;28;20247;-81
2022/06/17 09:56:09;;;;;;;11.90;8.70;;;;;;;24.61;62.02;94904.50;4964778;28;20237;-81
2022/06/17 09:58:48;;;;;;;15.18;9.15;;;;;;;24.81;61.73;94912.06;4965709;28;20630;-82
2022/06/17 10:01:20;;;;;;;15.50;7.97;;;;;;;24.83;58.77;94904.56;4964339;28;20205;-82
2022/06/17 10:03:58;;;;;;;10.93;7.25;;;;;;;24.95;57.42;94911.22;4964639;28;20216;-83
2022/06/17 10:06:38;;;;;;;33.35;27.65;;;;;;;25.11;52.91;94912.41;4960013;28;20207;-82
2022/06/17 10:09:26;;;;;;;12.35;6.38;;;;;;;25.36;50.11;94920.59;4958967;28;20715;-83
2022/06/17 10:12:03;;;;;;;14.23;7.07;;;;;;;25.55;52.12;94911.63;4964272;28;20213;-83
2022/06/17 10:14:57;;;;;;;6.70;5.40;;;;;;;25.60;46.08;94920.28;4962735;28;20682;-83
2022/06/17 10:20:37;;;;;;;7.07;5.70;;;;;;;25.79;46.76;94918.19;4960539;28;20203;-80
2022/06/17 10:23:20;;;;;;;9.82;5.75;;;;;;;25.98;47.06;94919.81;4962096;28;20291;-85
2022/06/17 10:26:01;;;;;;;10.40;5.90;;;;;;;26.19;45.84;94911.00;4954514;28;20225;-85
2022/06/17 10:29:05;;;;;;;6.18;5.30;;;;;;;26.40;47.20;94906.66;4961454;28;20295;-84
2022/06/17 10:31:40;;;;;;;10.30;5.60;;;;;;;26.54;45.36;94900.41;4956938;28;20216;-83
2022/06/17 10:34:18;;;;;;;10.38;5.50;;;;;;;26.66;45.67;94903.25;4964935;28;20211;-84
2022/06/17 10:36:55;;;;;;;7.53;5.85;;;;;;;26.75;45.38;94904.84;4961353;28;20210;-83
2022/06/17 10:39:28;;;;;;;6.03;5.43;;;;;;;26.87;43.54;94905.00;4961517;28;20202;-85
2022/06/17 10:42:02;;;;;;;5.40;4.80;;;;;;;26.77;41.11;94897.28;4960254;28;20221;-90
2022/06/17 10:44:35;;;;;;;4.68;4.05;;;;;;;26.72;40.43;94907.34;4958489;28;20256;-89
2022/06/17 10:47:26;;;;;;;5.78;4.10;;;;;;;26.85;41.71;94912.53;4960459;28;20307;-89
2022/06/17 10:50:02;;;;;;;7.88;4.10;;;;;;;27.10;41.16;94910.97;4959835;28;20216;-83
2022/06/17 10:52:39;;;;;;;6.78;4.57;;;;;;;27.30;40.43;94912.97;4958213;28;20244;-84
2022/06/17 10:55:22;;;;;;;6.75;4.80;;;;;;;27.63;42.39;94905.25;4959215;28;20691;-84
2022/06/17 10:58:13;;;;;;;5.90;5.22;;;;;;;27.83;41.18;94914.47;4958519;28;20213;-82
2022/06/17 11:00:56;;;;;;;6.78;5.05;;;;;;;28.07;42.85;94907.50;4959381;28;20214;-77
2022/06/17 11:03:36;;;;;;;7.65;5.70;;;;;;;28.23;41.43;94912.28;4961087;28;20259;-78
2022/06/17 11:06:17;;;;;;;7.38;5.75;;;;;;;28.48;42.48;94914.03;4958299;28;20212;-78
2022/06/17 11:09:01;;;;;;;13.15;6.97;;;;;;;28.41;47.32;94909.19;4961958;28;20212;-79
2022/06/17 11:12:08;;;;;;;14.52;7.53;;;;;;;28.22;47.92;94910.72;4962272;28;20196;-77
2022/06/17 11:14:45;;;;;;;8.98;7.40;;;;;;;28.36;49.33;94914.75;4965515;28;20232;-78
2022/06/17 11:17:23;;;;;;;12.40;8.00;;;;;;;28.48;48.50;94909.47;4953693;28;20682;-77
2022/06/17 11:19:55;;;;;;;13.77;7.90;;;;;;;28.27;48.96;94919.34;4954996;28;20280;-80
2022/06/17 11:22:35;;;;;;;10.23;7.00;;;;;;;28.06;48.67;94921.16;4962953;28;20220;-78
2022/06/17 11:25:20;;;;;;;8.25;7.15;;;;;;;27.68;48.49;94906.97;4962023;28;20255;-78
2022/06/17 11:27:56;;;;;;;10.35;7.15;;;;;;;27.45;49.19;94907.19;4961925;28;20223;-76
2022/06/17 11:30:29;;;;;;;11.77;6.43;;;;;;;27.27;49.25;94896.84;4965436;28;20212;-77
2022/06/17 11:33:01;;;;;;;9.15;7.43;;;;;;;27.07;49.74;94897.47;4958477;28;20553;-78
2022/06/17 11:35:56;;;;;;;10.02;7.30;;;;;;;27.02;49.71;94893.88;4951000;28;20395;-75
2022/06/17 11:38:45;;;;;;;11.38;7.30;;;;;;;26.86;50.11;94892.00;4961621;28;20307;-76
2022/06/17 11:42:04;;;;;;;11.50;7.13;;;;;;;26.72;50.03;94888.66;4958914;28;20284;-76
2022/06/17 11:45:01;;;;;;;10.65;7.00;;;;;;;26.58;50.53;94888.78;4958665;28;20219;-74
2022/06/17 11:47:49;;;;;;;10.05;7.47;;;;;;;26.63;51.13;94885.19;4955963;28;20312;-76
2022/06/17 11:51:15;;;;;;;12.48;7.60;;;;;;;26.51;51.25;94885.81;4963584;28;20212;-76
2022/06/17 11:54:07;;;;;;;10.50;6.10;;;;;;;26.35;48.84;94869.47;4960241;28;20739;-77
2022/06/17 11:57:05;;;;;;;10.27;6.40;;;;;;;26.32;49.47;94872.00;4961562;28;20253;-76
2022/06/17 12:00:18;;;;;;;10.13;6.05;;;;;;;26.48;48.14;94873.09;4965963;28;20212;-76
2022/06/17 12:03:17;;;;;;;7.32;6.03;;;;;;;26.92;47.56;94883.53;4963221;28;20207;-75
2022/06/17 12:06:17;;;;;;;10.07;6.45;;;;;;;27.11;47.79;94867.16;4964669;28;20607;-75
2022/06/17 12:09:14;;;;;;;10.82;6.70;;;;;;;27.38;48.70;94872.16;4965367;28;20201;-77
2022/06/17 12:11:59;;;;;;;7.78;6.07;;;;;;;27.80;46.24;94865.13;4959735;28;20301;-76
2022/06/17 12:14:58;;;;;;;7.22;6.03;;;;;;;27.81;46.24;94858.69;4963287;28;20204;-76
2022/06/17 12:17:57;;;;;;;8.82;5.82;;;;;;;28.08;43.04;94863.59;4959501;28;20200;-76
2022/06/17 12:20:51;;;;;;;9.52;5.30;;;;;;;28.53;42.59;94855.00;4962678;28;20204;-76
2022/06/17 12:23:48;;;;;;;12.02;5.07;;;;;;;28.93;42.23;94858.00;4958038;28;20292;-76
2022/06/17 12:26:31;;;;;;;7.55;4.97;;;;;;;29.27;41.27;94853.13;4960129;28;20324;-76
2022/06/17 12:29:23;;;;;;;7.38;4.57;;;;;;;29.50;40.64;94850.84;4961319;28;20266;-77
2022/06/17 12:32:03;;;;;;;6.28;4.32;;;;;;;29.52;38.86;94850.53;4961096;28;20209;-76